createdAt,value
2018-05-12T00:00:44.521Z,2.97
2018-05-12T00:03:12.497Z,3.80
2018-05-12T00:05:40.439Z,4.60
2018-05-12T00:08:08.339Z,8.73
2018-05-12T00:10:36.258Z,6.57
2018-05-12T00:13:04.212Z,4.20
2018-05-12T00:15:32.098Z,3.67
2018-05-12T00:18:00.042Z,4.83
2018-05-12T00:20:27.974Z,6.53
2018-05-12T00:22:55.916Z,9.93
2018-05-12T00:25:23.805Z,3.87
2018-05-12T00:27:51.713Z,5.63
2018-05-12T00:30:19.602Z,3.20
2018-05-12T00:32:47.513Z,3.23
2018-05-12T00:35:15.414Z,3.90
2018-05-12T00:37:43.310Z,9.10
2018-05-12T00:40:11.252Z,3.60
2018-05-12T00:42:39.137Z,3.60
2018-05-12T00:45:07.022Z,4.53
2018-05-12T00:47:34.947Z,3.80
2018-05-12T00:50:02.918Z,3.97
2018-05-12T00:52:30.798Z,4.47
2018-05-12T00:54:58.693Z,3.77
2018-05-12T00:57:26.623Z,5.00
2018-05-12T00:59:54.737Z,4.30
2018-05-12T01:02:22.678Z,4.20
2018-05-12T01:04:50.622Z,5.33
2018-05-12T01:07:18.519Z,4.93
2018-05-12T01:09:46.457Z,4.60
2018-05-12T01:12:14.350Z,4.03
2018-05-12T01:14:42.270Z,3.90
2018-05-12T01:17:10.183Z,6.80
2018-05-12T01:19:38.131Z,7.37
2018-05-12T01:22:06.053Z,4.27
2018-05-12T01:24:34.002Z,4.37
2018-05-12T01:27:01.939Z,4.40
2018-05-12T01:29:29.833Z,5.27
2018-05-12T01:31:57.723Z,5.20
2018-05-12T01:34:25.649Z,3.70
2018-05-12T01:36:53.587Z,5.20
2018-05-12T01:39:21.488Z,4.07
2018-05-12T01:41:49.395Z,7.93
2018-05-12T01:44:17.318Z,5.10
2018-05-12T01:46:45.250Z,4.00
2018-05-12T01:49:13.158Z,5.87
2018-05-12T01:51:41.084Z,4.10
2018-05-12T01:54:08.978Z,4.70
2018-05-12T01:56:36.874Z,4.00
2018-05-12T01:59:04.800Z,4.40
2018-05-12T02:01:32.981Z,4.17
2018-05-12T02:04:00.899Z,5.13
2018-05-12T02:06:28.834Z,5.60
2018-05-12T02:08:56.738Z,4.30
2018-05-12T02:11:24.694Z,4.63
2018-05-12T02:13:52.633Z,4.27
2018-05-12T02:16:20.594Z,3.57
2018-05-12T02:18:48.485Z,4.70
2018-05-12T02:21:16.410Z,4.80
2018-05-12T02:23:44.343Z,5.17
2018-05-12T02:26:12.300Z,4.97
2018-05-12T02:28:40.186Z,4.50
2018-05-12T02:31:08.111Z,4.80
2018-05-12T02:33:36.079Z,4.40
2018-05-12T02:36:03.906Z,5.23
2018-05-12T02:38:31.822Z,8.60
2018-05-12T02:40:59.722Z,5.10
2018-05-12T02:43:27.637Z,4.53
2018-05-12T02:45:55.593Z,6.10
2018-05-12T02:48:23.497Z,6.40
2018-05-12T02:50:51.383Z,5.00
2018-05-12T02:53:19.294Z,6.03
2018-05-12T02:55:47.197Z,5.90
2018-05-12T02:58:15.085Z,7.50
2018-05-12T03:00:42.974Z,4.93
2018-05-12T03:03:11.087Z,5.57
2018-05-12T03:05:39.022Z,5.50
2018-05-12T03:08:06.917Z,5.30
2018-05-12T03:10:34.802Z,7.17
2018-05-12T03:13:02.685Z,5.47
2018-05-12T03:15:30.586Z,7.10
2018-05-12T03:17:58.506Z,5.70
2018-05-12T03:20:26.424Z,4.60
2018-05-12T03:22:54.334Z,6.03
2018-05-12T03:25:22.245Z,5.53
2018-05-12T03:27:50.223Z,4.67
2018-05-12T03:30:18.115Z,4.10
2018-05-12T03:32:46.022Z,5.63
2018-05-12T03:35:13.922Z,5.20
2018-05-12T03:37:41.827Z,6.33
2018-05-12T03:40:09.741Z,4.73
2018-05-12T03:42:37.679Z,5.20
2018-05-12T03:45:05.602Z,5.30
2018-05-12T03:47:33.506Z,5.40
2018-05-12T03:50:01.422Z,4.93
2018-05-12T03:52:29.334Z,5.23
2018-05-12T03:54:57.248Z,5.70
2018-05-12T03:57:25.173Z,5.67
2018-05-12T03:59:53.138Z,5.70
2018-05-12T04:02:21.050Z,5.93
2018-05-12T04:04:55.274Z,4.33
2018-05-12T04:07:29.394Z,4.67
2018-05-12T04:10:03.270Z,6.83
2018-05-12T04:12:34.901Z,8.17
2018-05-12T04:15:02.832Z,7.53
2018-05-12T04:17:30.770Z,5.67
2018-05-12T04:19:58.681Z,5.33
2018-05-12T04:22:26.577Z,5.80
2018-05-12T04:24:54.485Z,7.10
2018-05-12T04:27:22.434Z,5.73
2018-05-12T04:29:50.339Z,6.57
2018-05-12T04:32:18.257Z,6.13
2018-05-12T04:34:46.166Z,9.43
2018-05-12T04:37:14.113Z,7.87
2018-05-12T04:39:41.998Z,11.90
2018-05-12T04:42:09.914Z,8.80
2018-05-12T04:44:37.886Z,8.97
2018-05-12T04:47:05.765Z,8.10
2018-05-12T04:49:33.771Z,8.70
2018-05-12T04:52:01.585Z,10.13
2018-05-12T04:54:29.475Z,10.03
2018-05-12T04:56:57.409Z,10.97
2018-05-12T04:59:25.326Z,10.13
2018-05-12T05:01:53.263Z,9.77
2018-05-12T05:04:21.189Z,13.17
2018-05-12T05:06:49.366Z,10.30
2018-05-12T05:09:17.313Z,17.73
2018-05-12T05:11:45.221Z,11.27
2018-05-12T05:14:13.149Z,10.53
2018-05-12T05:16:41.042Z,13.03
2018-05-12T05:19:08.938Z,13.90
2018-05-12T05:21:36.842Z,11.80
2018-05-12T05:24:04.786Z,12.80
2018-05-12T05:26:32.675Z,12.03
2018-05-12T05:29:00.577Z,12.93
2018-05-12T05:31:28.506Z,15.03
2018-05-12T05:33:56.403Z,13.20
2018-05-12T05:36:24.302Z,13.37
2018-05-12T05:38:52.190Z,12.73
2018-05-12T05:41:20.121Z,14.53
2018-05-12T05:43:48.065Z,12.40
2018-05-12T05:46:15.997Z,13.20
2018-05-12T05:48:43.902Z,11.00
2018-05-12T05:51:11.809Z,16.50
2018-05-12T05:53:39.725Z,12.40
2018-05-12T05:56:07.623Z,12.20
2018-05-12T05:58:35.617Z,15.33
2018-05-12T06:01:03.486Z,14.53
2018-05-12T06:03:31.365Z,12.83
2018-05-12T06:05:59.306Z,13.53
2018-05-12T06:08:27.362Z,13.43
2018-05-12T06:10:55.255Z,25.00
2018-05-12T06:13:23.169Z,12.60
2018-05-12T06:15:51.085Z,16.77
2018-05-12T06:18:18.976Z,16.03
2018-05-12T06:20:46.952Z,16.50
2018-05-12T06:23:14.936Z,13.17
2018-05-12T06:25:42.789Z,12.73
2018-05-12T06:28:10.665Z,17.23
2018-05-12T06:30:38.565Z,13.50
2018-05-12T06:33:06.474Z,12.57
2018-05-12T06:35:34.365Z,18.07
2018-05-12T06:38:02.274Z,20.90
2018-05-12T06:40:30.207Z,14.83
2018-05-12T06:42:58.112Z,14.77
2018-05-12T06:45:26.002Z,17.33
2018-05-12T06:47:53.892Z,17.30
2018-05-12T06:50:21.785Z,12.80
2018-05-12T06:52:49.739Z,18.43
2018-05-12T06:55:17.598Z,12.40
2018-05-12T06:57:45.496Z,12.40
2018-05-12T07:00:13.414Z,14.97
2018-05-12T07:02:41.305Z,15.77
2018-05-12T07:05:09.208Z,17.60
2018-05-12T07:07:37.134Z,22.17
2018-05-12T07:10:05.301Z,12.37
2018-05-12T07:12:33.273Z,16.30
2018-05-12T07:15:01.212Z,13.20
2018-05-12T07:17:29.105Z,14.23
2018-05-12T07:19:57.021Z,14.00
2018-05-12T07:22:24.973Z,13.40
2018-05-12T07:24:52.857Z,14.97
2018-05-12T07:27:20.766Z,14.77
2018-05-12T07:29:48.675Z,13.50
2018-05-12T07:32:16.569Z,14.80
2018-05-12T07:34:44.462Z,14.60
2018-05-12T07:37:12.390Z,13.60
2018-05-12T07:39:40.303Z,17.97
2018-05-12T07:42:08.195Z,16.63
2018-05-12T07:44:36.122Z,13.80
2018-05-12T07:47:04.029Z,12.57
2018-05-12T07:49:31.957Z,12.73
2018-05-12T07:51:59.865Z,13.60
2018-05-12T07:54:27.773Z,13.53
2018-05-12T07:56:55.744Z,13.13
2018-05-12T07:59:23.589Z,16.77
2018-05-12T08:01:51.542Z,13.90
2018-05-12T08:04:19.429Z,13.80
2018-05-12T08:06:47.349Z,14.00
2018-05-12T08:09:15.238Z,13.10
2018-05-12T08:11:43.366Z,13.77
2018-05-12T08:14:11.285Z,17.50
2018-05-12T08:16:39.183Z,13.90
2018-05-12T08:19:07.105Z,10.67
2018-05-12T08:21:35.009Z,9.73
2018-05-12T08:24:02.964Z,10.60
2018-05-12T08:26:30.797Z,8.97
2018-05-12T08:28:58.691Z,12.77
2018-05-12T08:31:26.639Z,9.60
2018-05-12T08:33:54.514Z,8.60
2018-05-12T08:36:22.425Z,9.73
2018-05-12T08:38:50.341Z,10.37
2018-05-12T08:41:18.240Z,10.77
2018-05-12T08:43:46.130Z,11.40
2018-05-12T08:46:14.046Z,9.23
2018-05-12T08:48:41.970Z,7.77
2018-05-12T08:51:09.868Z,6.97
2018-05-12T08:53:37.764Z,6.60
2018-05-12T08:56:05.709Z,6.17
2018-05-12T08:58:33.593Z,8.23
2018-05-12T09:01:01.495Z,10.93
2018-05-12T09:03:29.421Z,8.03
2018-05-12T09:05:57.306Z,5.00
2018-05-12T09:08:25.241Z,8.67
2018-05-12T09:10:53.166Z,6.13
2018-05-12T09:13:21.264Z,11.43
2018-05-12T09:15:49.165Z,7.90
2018-05-12T09:18:17.062Z,6.57
2018-05-12T09:20:45.011Z,6.00
2018-05-12T09:23:12.933Z,7.03
2018-05-12T09:25:40.969Z,7.23
2018-05-12T09:28:08.773Z,5.80
2018-05-12T09:30:36.674Z,6.87
2018-05-12T09:33:04.559Z,10.00
2018-05-12T09:35:32.465Z,10.57
2018-05-12T09:38:00.433Z,15.70
2018-05-12T09:40:28.334Z,6.50
2018-05-12T09:42:56.226Z,9.07
2018-05-12T09:45:24.126Z,9.87
2018-05-12T09:47:52.022Z,7.20
2018-05-12T09:50:19.910Z,10.23
2018-05-12T09:52:47.805Z,8.63
2018-05-12T09:55:15.738Z,6.53
2018-05-12T09:57:43.626Z,6.13
2018-05-12T10:00:11.526Z,5.60
2018-05-12T10:02:39.457Z,5.73
2018-05-12T10:05:07.653Z,6.07
2018-05-12T10:07:35.605Z,6.70
2018-05-12T10:10:03.543Z,6.77
2018-05-12T10:12:31.498Z,6.77
2018-05-12T10:14:59.582Z,6.30
2018-05-12T10:17:27.484Z,6.77
2018-05-12T10:19:55.389Z,5.33
2018-05-12T10:22:23.305Z,6.73
2018-05-12T10:24:51.213Z,6.50
2018-05-12T10:27:19.134Z,6.70
2018-05-12T10:29:47.014Z,5.63
2018-05-12T10:32:14.922Z,4.87
2018-05-12T10:34:42.832Z,7.47
2018-05-12T10:37:10.761Z,7.10
2018-05-12T10:39:38.657Z,119.67
2018-05-12T10:42:06.562Z,23.60
2018-05-12T10:44:34.713Z,6.70
2018-05-12T10:47:02.618Z,14.90
2018-05-12T10:49:30.538Z,9.97
2018-05-12T10:51:58.431Z,9.50
2018-05-12T10:54:26.386Z,6.60
2018-05-12T10:56:54.315Z,21.40
2018-05-12T10:59:22.232Z,18.70
2018-05-12T11:01:50.165Z,93.83
2018-05-12T11:04:18.026Z,11.07
2018-05-12T11:06:45.927Z,5.30
2018-05-12T11:09:13.829Z,4.80
2018-05-12T11:11:41.721Z,5.90
2018-05-12T11:14:09.666Z,4.70
2018-05-12T11:16:37.733Z,7.47
2018-05-12T11:19:05.645Z,4.93
2018-05-12T11:21:33.579Z,8.40
2018-05-12T11:24:01.463Z,10.03
2018-05-12T11:26:29.378Z,6.10
2018-05-12T11:28:57.269Z,8.27
2018-05-12T11:31:25.167Z,5.20
2018-05-12T11:33:53.093Z,8.57
2018-05-12T11:36:21.007Z,7.13
2018-05-12T11:38:48.994Z,6.80
2018-05-12T11:41:16.834Z,6.30
2018-05-12T11:43:44.726Z,8.87
2018-05-12T11:46:12.629Z,8.33
2018-05-12T11:48:40.548Z,9.60
2018-05-12T11:51:08.439Z,5.60
2018-05-12T11:53:36.342Z,9.27
2018-05-12T11:56:04.238Z,6.80
2018-05-12T11:58:32.178Z,4.93
2018-05-12T12:01:00.110Z,4.33
2018-05-12T12:03:28.011Z,6.83
2018-05-12T12:05:55.962Z,7.43
2018-05-12T12:08:23.854Z,8.00
2018-05-12T12:10:51.745Z,4.20
2018-05-12T12:13:19.626Z,6.13
2018-05-12T12:15:47.521Z,9.07
2018-05-12T12:18:15.649Z,4.70
2018-05-12T12:20:43.578Z,6.07
2018-05-12T12:23:11.498Z,3.93
2018-05-12T12:25:39.397Z,5.07
2018-05-12T12:28:07.306Z,4.63
2018-05-12T12:30:35.222Z,3.47
2018-05-12T12:33:03.150Z,5.07
2018-05-12T12:35:31.041Z,5.17
2018-05-12T12:37:58.938Z,7.67
2018-05-12T12:40:26.832Z,7.23
2018-05-12T12:42:54.789Z,4.07
2018-05-12T12:45:22.693Z,8.53
2018-05-12T12:47:50.590Z,4.83
2018-05-12T12:50:18.481Z,4.40
2018-05-12T12:52:46.442Z,7.53
2018-05-12T12:55:14.349Z,4.50
2018-05-12T12:57:42.269Z,3.70
2018-05-12T13:00:10.165Z,3.23
2018-05-12T13:02:38.047Z,4.40
2018-05-12T13:05:05.954Z,5.73
2018-05-12T13:07:33.955Z,5.87
2018-05-12T13:10:01.876Z,3.60
2018-05-12T13:12:29.841Z,4.93
2018-05-12T13:14:57.738Z,7.00
2018-05-12T13:17:25.677Z,4.37
2018-05-12T13:19:53.780Z,3.70
2018-05-12T13:22:21.693Z,3.40
2018-05-12T13:24:49.616Z,8.10
2018-05-12T13:27:17.568Z,5.40
2018-05-12T13:29:45.494Z,6.93
2018-05-12T13:32:13.457Z,3.97
2018-05-12T13:34:41.466Z,8.20
2018-05-12T13:37:09.377Z,3.73
2018-05-12T13:39:37.267Z,4.83
2018-05-12T13:42:05.214Z,3.90
2018-05-12T13:44:33.118Z,3.17
2018-05-12T13:47:01.071Z,3.57
2018-05-12T13:49:29.010Z,3.93
2018-05-12T13:51:56.921Z,3.60
2018-05-12T13:54:24.854Z,3.70
2018-05-12T13:56:52.825Z,7.03
2018-05-12T13:59:20.825Z,5.53
2018-05-12T14:01:48.701Z,6.80
2018-05-12T14:04:16.601Z,4.10
2018-05-12T14:06:44.489Z,3.33
2018-05-12T14:09:12.425Z,3.53
2018-05-12T14:11:40.310Z,4.03
2018-05-12T14:14:08.209Z,3.53
2018-05-12T14:16:36.146Z,6.93
2018-05-12T14:19:04.151Z,4.60
2018-05-12T14:21:32.225Z,3.67
2018-05-12T14:24:00.165Z,4.70
2018-05-12T14:26:28.168Z,3.00
2018-05-12T14:28:55.994Z,4.33
2018-05-12T14:31:23.898Z,3.57
2018-05-12T14:33:51.790Z,8.73
2018-05-12T14:36:19.683Z,3.53
2018-05-12T14:38:47.577Z,3.77
2018-05-12T14:41:15.461Z,3.30
2018-05-12T14:43:43.377Z,6.53
2018-05-12T14:46:11.271Z,3.23
2018-05-12T14:48:39.169Z,5.23
2018-05-12T14:51:07.090Z,4.47
2018-05-12T14:53:35.016Z,3.07
2018-05-12T14:56:02.906Z,3.57
2018-05-12T14:58:30.838Z,3.77
2018-05-12T15:00:58.762Z,4.57
2018-05-12T15:03:26.649Z,3.33
2018-05-12T15:05:54.563Z,4.13
2018-05-12T15:08:22.595Z,3.63
2018-05-12T15:10:50.426Z,11.47
2018-05-12T15:13:18.334Z,4.03
2018-05-12T15:15:46.251Z,4.50
2018-05-12T15:18:14.193Z,3.23
2018-05-12T15:20:42.150Z,3.77
2018-05-12T15:23:10.241Z,4.10
2018-05-12T15:25:38.159Z,6.63
2018-05-12T15:28:06.070Z,4.07
2018-05-12T15:30:33.973Z,3.70
2018-05-12T15:33:01.876Z,6.07
2018-05-12T15:35:29.770Z,4.83
2018-05-12T15:37:57.661Z,4.63
2018-05-12T15:40:25.573Z,4.10
2018-05-12T15:42:53.509Z,3.83
2018-05-12T15:45:21.418Z,3.70
2018-05-12T15:47:49.343Z,10.67
2018-05-12T15:50:17.268Z,11.47
2018-05-12T15:52:45.169Z,14.13
2018-05-12T15:55:13.058Z,15.40
2018-05-12T15:57:40.949Z,15.07
2018-05-12T16:00:08.857Z,8.27
2018-05-12T16:02:36.758Z,11.63
2018-05-12T16:05:04.717Z,10.20
2018-05-12T16:07:32.617Z,14.23
2018-05-12T16:10:00.532Z,12.47
2018-05-12T16:12:28.414Z,13.40
2018-05-12T16:14:56.306Z,10.27
2018-05-12T16:17:24.205Z,12.03
2018-05-12T16:19:52.100Z,32.60
2018-05-12T16:22:19.993Z,36.13
2018-05-12T16:24:48.162Z,22.50
2018-05-12T16:27:16.050Z,20.50
2018-05-12T16:29:43.950Z,33.07
2018-05-12T16:32:11.854Z,20.03
2018-05-12T16:34:39.737Z,18.20
2018-05-12T16:37:07.627Z,15.00
2018-05-12T16:39:35.513Z,13.97
2018-05-12T16:42:03.418Z,14.70
2018-05-12T16:44:31.391Z,13.90
2018-05-12T16:46:59.241Z,13.83
2018-05-12T16:49:27.158Z,18.87
2018-05-12T16:51:55.074Z,14.07
2018-05-12T16:54:22.973Z,13.97
2018-05-12T16:56:50.873Z,14.10
2018-05-12T16:59:18.872Z,15.67
2018-05-12T17:01:46.706Z,14.33
2018-05-12T17:04:14.605Z,21.50
2018-05-12T17:06:42.498Z,16.87
2018-05-12T17:09:10.433Z,12.03
2018-05-12T17:11:38.365Z,12.10
2018-05-12T17:14:06.292Z,18.00
2018-05-12T17:16:34.202Z,11.77
2018-05-12T17:19:02.118Z,11.60
2018-05-12T17:21:30.026Z,9.60
2018-05-12T17:23:57.912Z,16.40
2018-05-12T17:26:26.122Z,17.37
2018-05-12T17:28:54.008Z,18.73
2018-05-12T17:31:21.956Z,13.97
2018-05-12T17:33:49.886Z,12.43
2018-05-12T17:36:17.786Z,23.50
2018-05-12T17:38:45.681Z,18.53
2018-05-12T17:41:13.566Z,19.60
2018-05-12T17:43:41.462Z,8.37
2018-05-12T17:46:09.369Z,10.23
2018-05-12T17:48:37.291Z,10.00
2018-05-12T17:51:05.216Z,12.77
2018-05-12T17:53:33.141Z,16.43
2018-05-12T17:56:01.058Z,12.03
2018-05-12T17:58:29.019Z,13.60
2018-05-12T18:00:56.914Z,18.30
2018-05-12T18:03:24.833Z,22.50
2018-05-12T18:05:52.773Z,11.93
2018-05-12T18:08:20.641Z,10.70
2018-05-12T18:10:48.545Z,9.90
2018-05-12T18:13:16.431Z,11.17
2018-05-12T18:15:44.375Z,14.00
2018-05-12T18:18:12.290Z,12.00
2018-05-12T18:20:40.194Z,10.87
2018-05-12T18:23:08.141Z,11.50
2018-05-12T18:25:35.981Z,12.80
2018-05-12T18:28:04.037Z,9.17
2018-05-12T18:30:31.933Z,10.57
2018-05-12T18:32:59.818Z,10.37
2018-05-12T18:35:27.709Z,10.93
2018-05-12T18:37:55.611Z,12.10
2018-05-12T18:40:23.517Z,11.30
2018-05-12T18:42:51.462Z,11.43
2018-05-12T18:45:19.345Z,8.80
2018-05-12T18:47:47.249Z,18.60
2018-05-12T18:50:15.152Z,9.03
2018-05-12T18:52:43.037Z,9.83
2018-05-12T18:55:10.937Z,10.20
2018-05-12T18:57:38.840Z,11.37
2018-05-12T19:00:06.733Z,17.63
2018-05-12T19:02:34.653Z,12.00
2018-05-12T19:05:02.550Z,12.23
2018-05-12T19:07:30.441Z,19.53
2018-05-12T19:09:58.345Z,12.33
2018-05-12T19:12:26.240Z,12.57
2018-05-12T19:14:54.134Z,13.63
2018-05-12T19:17:22.026Z,11.37
2018-05-12T19:19:49.913Z,12.10
2018-05-12T19:22:17.810Z,12.63
2018-05-12T19:24:45.694Z,11.30
2018-05-12T19:27:13.618Z,12.60
2018-05-12T19:29:41.530Z,10.07
2018-05-12T19:32:09.430Z,11.37
2018-05-12T19:34:37.396Z,10.00
2018-05-12T19:37:05.309Z,16.40
2018-05-12T19:39:33.242Z,13.57
2018-05-12T19:42:01.139Z,11.60
2018-05-12T19:47:09.133Z,11.83
2018-05-12T19:49:37.018Z,16.60
2018-05-12T19:52:04.910Z,12.23
2018-05-12T19:54:32.814Z,12.70
2018-05-12T19:57:00.712Z,14.60
2018-05-12T19:59:28.603Z,25.00
2018-05-12T20:01:56.517Z,11.03
2018-05-12T20:04:24.438Z,12.37
2018-05-12T20:06:52.349Z,15.77
2018-05-12T20:09:20.237Z,12.33
2018-05-12T20:11:48.122Z,17.57
2018-05-12T20:14:16.022Z,12.70
2018-05-12T20:16:43.929Z,14.37
2018-05-12T20:19:11.829Z,24.10
2018-05-12T20:21:39.749Z,17.00
2018-05-12T20:24:07.654Z,11.83
2018-05-12T20:26:35.554Z,14.17
2018-05-12T20:29:03.457Z,19.50
2018-05-12T20:31:31.509Z,17.40
2018-05-12T20:33:59.427Z,15.10
2018-05-12T20:36:27.331Z,12.97
2018-05-12T20:38:55.241Z,16.10
2018-05-12T20:41:23.165Z,19.33
2018-05-12T20:43:51.070Z,19.17
2018-05-12T20:46:18.974Z,18.13
2018-05-12T20:48:46.869Z,17.37
2018-05-12T20:51:14.767Z,13.33
2018-05-12T20:53:42.677Z,18.33
2018-05-12T20:56:10.566Z,16.30
2018-05-12T20:58:38.477Z,14.33
2018-05-12T21:01:06.398Z,19.53
2018-05-12T21:03:34.309Z,15.10
2018-05-12T21:06:02.222Z,21.70
2018-05-12T21:08:30.341Z,13.23
2018-05-12T21:10:58.233Z,18.47
2018-05-12T21:13:26.131Z,20.07
2018-05-12T21:15:54.021Z,18.73
2018-05-12T21:18:21.938Z,15.00
2018-05-12T21:20:49.863Z,19.47
2018-05-12T21:23:17.793Z,19.67
2018-05-12T21:25:45.697Z,17.97
2018-05-12T21:28:13.629Z,21.83
2018-05-12T21:30:41.514Z,22.70
2018-05-12T21:33:09.629Z,28.87
2018-05-12T21:35:37.522Z,25.90
2018-05-12T21:38:05.429Z,22.80
2018-05-12T21:40:33.302Z,21.83
2018-05-12T21:43:01.202Z,19.77
2018-05-12T21:45:29.090Z,23.70
2018-05-12T21:47:56.974Z,22.93
2018-05-12T21:50:24.922Z,25.93
2018-05-12T21:52:52.855Z,27.10
2018-05-12T21:55:20.754Z,21.67
2018-05-12T21:57:48.707Z,20.63
2018-05-12T22:00:16.630Z,21.47
2018-05-12T22:02:44.510Z,31.70
2018-05-12T22:05:12.417Z,22.40
2018-05-12T22:07:40.371Z,25.40
2018-05-12T22:10:08.258Z,27.87
2018-05-12T22:12:36.165Z,24.27
2018-05-12T22:15:04.098Z,32.83
2018-05-12T22:17:31.999Z,27.50
2018-05-12T22:19:59.881Z,25.20
2018-05-12T22:22:27.772Z,25.50
2018-05-12T22:24:55.670Z,24.80
2018-05-12T22:27:23.601Z,26.20
2018-05-12T22:29:51.494Z,30.13
2018-05-12T22:32:19.405Z,25.07
2018-05-12T22:34:47.575Z,31.93
2018-05-12T22:37:15.465Z,32.43
2018-05-12T22:39:43.353Z,38.27
2018-05-12T22:42:11.268Z,28.73
2018-05-12T22:44:39.159Z,30.67
2018-05-12T22:47:07.050Z,32.27
2018-05-12T22:49:34.987Z,31.00
2018-05-12T22:52:02.885Z,33.90
2018-05-12T22:54:30.791Z,30.03
2018-05-12T22:56:58.745Z,38.13
2018-05-12T22:59:26.625Z,31.43
2018-05-12T23:01:54.542Z,27.60
2018-05-12T23:04:22.433Z,30.40
2018-05-12T23:06:50.317Z,31.10
2018-05-12T23:09:18.255Z,37.93
2018-05-12T23:11:46.200Z,35.17
2018-05-12T23:14:14.090Z,34.07
2018-05-12T23:16:41.982Z,40.07
2018-05-12T23:19:09.870Z,32.97
2018-05-12T23:21:37.766Z,37.97
2018-05-12T23:24:05.657Z,35.17
2018-05-12T23:26:33.546Z,37.43
2018-05-12T23:29:01.452Z,35.93
2018-05-12T23:31:29.348Z,29.87
2018-05-12T23:33:57.234Z,33.63
2018-05-12T23:36:25.291Z,33.70
2018-05-12T23:38:53.205Z,32.20
2018-05-12T23:41:21.126Z,33.13
2018-05-12T23:43:49.016Z,34.00
2018-05-12T23:46:16.918Z,32.37
2018-05-12T23:48:44.813Z,31.07
2018-05-12T23:51:12.755Z,31.10
2018-05-12T23:53:40.654Z,36.50
2018-05-12T23:56:08.573Z,35.37
2018-05-12T23:58:36.468Z,33.67
